Time;durP1;ratioP1;P1;durP2;ratioP2;P2;SDS_P1;SDS_P2;PMS_P1;PMS_P2;Temp;Humidity;BMP_temperature;BMP_pressure;BME280_temperature;BME280_humidity;BME280_pressure;Samples;Min_cycle;Max_cycle;Signal;HPM_P1;HPM_P2
2023/09/01 00:01:15;;;;;;;0.30;0.30;;;16.30;1.00;;;;;;5063160;28;20067;-73
2023/09/01 00:03:42;;;;;;;0.68;0.47;;;16.40;1.00;;;;;;5064852;28;20049;-74
2023/09/01 00:06:13;;;;;;;0.20;0.20;;;16.40;1.00;;;;;;5064437;28;20072;-74
2023/09/01 00:08:40;;;;;;;0.28;0.22;;;16.40;1.00;;;;;;5063350;28;20159;-74
2023/09/01 00:11:07;;;;;;;0.35;0.35;;;16.40;1.00;;;;;;5062276;28;20584;-74
2023/09/01 00:13:34;;;;;;;0.20;0.20;;;16.40;1.00;;;;;;5064434;28;20132;-74
2023/09/01 00:16:01;;;;;;;0.30;0.30;;;16.50;1.00;;;;;;5064109;28;20048;-74
2023/09/01 00:18:30;;;;;;;0.40;0.30;;;16.50;1.00;;;;;;5062218;28;20055;-74
2023/09/01 00:20:58;;;;;;;0.40;0.40;;;16.50;1.00;;;;;;5059806;28;20502;-73
2023/09/01 00:23:25;;;;;;;0.30;0.30;;;16.50;1.00;;;;;;5045368;28;20058;-73
2023/09/01 00:25:56;;;;;;;0.20;0.20;;;16.50;1.00;;;;;;5060244;28;20048;-73
2023/09/01 00:28:23;;;;;;;0.38;0.30;;;16.50;1.00;;;;;;5058592;28;20044;-74
2023/09/01 00:30:54;;;;;;;0.30;0.30;;;16.50;1.00;;;;;;5059756;28;20049;-73
2023/09/01 00:33:24;;;;;;;0.47;0.40;;;16.50;1.00;;;;;;5061069;28;20059;-73
2023/09/01 00:35:52;;;;;;;0.40;0.40;;;16.60;1.00;;;;;;5062852;28;20128;-73
2023/09/01 00:38:19;;;;;;;0.30;0.30;;;16.60;1.00;;;;;;5046321;28;20470;-72
2023/09/01 00:40:49;;;;;;;0.30;0.30;;;16.60;1.00;;;;;;5059218;28;20067;-73
2023/09/01 00:43:16;;;;;;;0.28;0.28;;;16.60;1.00;;;;;;5077789;28;20040;-73
2023/09/01 00:45:42;;;;;;;0.32;0.32;;;16.60;1.00;;;;;;5045889;28;20564;-73
2023/09/01 00:48:11;;;;;;;0.22;0.22;;;16.60;1.00;;;;;;5062470;28;20427;-72
2023/09/01 00:50:37;;;;;;;0.65;0.40;;;16.70;1.00;;;;;;5063132;28;20044;-73
2023/09/01 00:53:05;;;;;;;0.40;0.40;;;16.60;1.00;;;;;;5062218;28;20075;-73
2023/09/01 00:55:35;;;;;;;0.55;0.40;;;16.70;1.00;;;;;;5062520;28;20054;-73
2023/09/01 00:58:02;;;;;;;0.35;0.35;;;16.70;1.00;;;;;;5044932;28;20127;-73
2023/09/01 01:00:31;;;;;;;0.20;0.20;;;16.70;1.00;;;;;;5030064;28;20052;-73
2023/09/01 01:03:04;;;;;;;0.40;0.40;;;16.70;1.00;;;;;;5055483;28;20090;-73
2023/09/01 01:05:53;;;;;;;0.38;0.30;;;16.70;1.00;;;;;;5042859;28;20060;-73
2023/09/01 01:08:37;;;;;;;0.28;0.28;;;16.70;1.00;;;;;;5047001;28;20079;-73
2023/09/01 01:11:28;;;;;;;0.50;0.40;;;16.70;1.00;;;;;;5042103;28;20053;-73
2023/09/01 01:13:58;;;;;;;0.40;0.40;;;16.70;1.00;;;;;;5078217;28;20200;-73
2023/09/01 01:16:26;;;;;;;0.30;0.30;;;16.70;1.00;;;;;;5046039;28;20053;-73
2023/09/01 01:18:53;;;;;;;0.25;0.25;;;16.70;1.00;;;;;;5061822;28;20221;-72
2023/09/01 01:21:22;;;;;;;0.30;0.22;;;16.70;1.00;;;;;;5061437;28;20055;-72
2023/09/01 01:23:49;;;;;;;0.28;0.28;;;16.70;1.00;;;;;;5062536;28;20955;-72
2023/09/01 01:26:16;;;;;;;0.20;0.20;;;16.70;1.00;;;;;;5043848;28;20112;-72
2023/09/01 01:28:44;;;;;;;0.40;0.40;;;16.80;1.00;;;;;;5064218;28;20083;-72
2023/09/01 01:31:11;;;;;;;0.22;0.17;;;16.80;1.00;;;;;;5063672;28;20045;-72
2023/09/01 01:34:04;;;;;;;0.38;0.30;;;16.80;1.00;;;;;;5062316;28;20111;-72
2023/09/01 01:36:38;;;;;;;0.30;0.30;;;16.80;1.00;;;;;;5063796;28;20471;-72
2023/09/01 01:39:09;;;;;;;0.20;0.20;;;16.80;1.00;;;;;;5065780;28;20106;-72
2023/09/01 01:41:53;;;;;;;0.30;0.30;;;16.80;1.00;;;;;;5062725;28;20048;-72
2023/09/01 01:44:28;;;;;;;0.25;0.25;;;16.80;1.00;;;;;;5066266;28;20048;-72
2023/09/01 01:46:56;;;;;;;0.22;0.22;;;16.70;1.00;;;;;;5085817;28;20565;-72
2023/09/01 01:49:22;;;;;;;0.30;0.30;;;16.70;1.00;;;;;;5050004;28;20119;-72
2023/09/01 01:51:49;;;;;;;0.65;0.40;;;16.70;1.00;;;;;;5067207;28;20512;-72
2023/09/01 01:54:16;;;;;;;0.40;0.38;;;16.70;1.00;;;;;;5066395;28;20102;-72
2023/09/01 01:56:43;;;;;;;0.35;0.32;;;16.70;1.00;;;;;;5065375;28;20044;-72
2023/09/01 01:59:11;;;;;;;0.40;0.32;;;16.70;1.00;;;;;;5067720;28;20045;-72
2023/09/01 02:01:38;;;;;;;0.50;0.40;;;16.70;1.00;;;;;;5065915;28;20413;-72
2023/09/01 02:04:05;;;;;;;0.30;0.30;;;16.70;1.00;;;;;;5067725;28;20079;-72
2023/09/01 02:06:32;;;;;;;0.40;0.40;;;16.70;1.00;;;;;;5061472;28;20068;-72
2023/09/01 02:08:59;;;;;;;0.40;0.35;;;16.70;1.00;;;;;;5066089;28;20564;-72
2023/09/01 02:11:25;;;;;;;1.00;0.40;;;16.80;1.00;;;;;;5064337;28;20062;-72
2023/09/01 02:13:52;;;;;;;0.68;0.50;;;16.70;7.30;;;;;;5067479;28;20045;-72
2023/09/01 02:16:19;;;;;;;0.50;0.50;;;16.70;19.10;;;;;;5067284;28;20934;-72
2023/09/01 02:18:46;;;;;;;0.60;0.43;;;16.70;30.70;;;;;;5064826;28;20132;-72
2023/09/01 02:21:19;;;;;;;0.60;0.60;;;16.80;34.60;;;;;;5066857;28;20056;-72
2023/09/01 02:23:47;;;;;;;0.95;0.55;;;16.80;41.20;;;;;;5065777;28;20055;-71
2023/09/01 02:26:18;;;;;;;0.68;0.50;;;16.80;43.00;;;;;;5047559;28;20139;-72
2023/09/01 02:28:45;;;;;;;0.63;0.43;;;16.80;44.40;;;;;;5061788;28;20098;-72
2023/09/01 02:31:12;;;;;;;0.63;0.40;;;16.80;51.00;;;;;;5065154;28;20602;-72
2023/09/01 02:33:39;;;;;;;0.77;0.45;;;16.80;54.50;;;;;;5065360;28;20156;-72
2023/09/01 02:36:25;;;;;;;0.60;0.57;;;16.90;56.50;;;;;;5048856;28;20123;-72
2023/09/01 02:38:53;;;;;;;0.52;0.50;;;16.90;53.00;;;;;;5048924;28;20510;-72
2023/09/01 02:41:19;;;;;;;0.40;0.40;;;16.90;56.70;;;;;;5046984;28;20164;-72
2023/09/01 02:43:47;;;;;;;0.70;0.55;;;16.90;56.20;;;;;;5049022;28;20500;-72
2023/09/01 02:46:13;;;;;;;1.00;0.50;;;16.90;58.60;;;;;;5065065;28;20072;-72
2023/09/01 02:48:40;;;;;;;1.08;0.60;;;16.90;54.10;;;;;;5049281;28;20053;-72
2023/09/01 02:51:07;;;;;;;0.73;0.55;;;17.00;61.00;;;;;;5064564;28;20508;-72
2023/09/01 02:53:34;;;;;;;0.50;0.50;;;17.00;60.60;;;;;;5066898;28;20040;-72
2023/09/01 02:56:01;;;;;;;1.63;0.70;;;17.00;58.00;;;;;;5065815;28;20125;-72
2023/09/01 02:58:28;;;;;;;1.00;0.60;;;17.00;50.30;;;;;;5066030;28;20070;-72
2023/09/01 03:00:55;;;;;;;0.38;0.38;;;17.00;43.40;;;;;;5066281;28;20515;-73
2023/09/01 03:03:22;;;;;;;0.40;0.40;;;16.90;43.10;;;;;;5061382;28;20404;-72
2023/09/01 03:05:50;;;;;;;0.80;0.70;;;16.90;48.90;;;;;;5066213;28;20056;-72
2023/09/01 03:08:17;;;;;;;0.47;0.43;;;16.90;50.30;;;;;;5064700;28;20089;-72
2023/09/01 03:10:44;;;;;;;0.45;0.40;;;16.90;56.50;;;;;;5065088;28;20472;-72
2023/09/01 03:13:11;;;;;;;0.63;0.57;;;16.90;63.10;;;;;;5052816;28;20041;-72
2023/09/01 03:15:40;;;;;;;0.90;0.60;;;16.90;61.90;;;;;;5066581;28;20147;-72
2023/09/01 03:18:07;;;;;;;0.65;0.63;;;16.90;68.00;;;;;;5064939;28;20051;-73
2023/09/01 03:20:34;;;;;;;0.52;0.32;;;16.90;65.90;;;;;;5065538;28;20040;-72
2023/09/01 03:23:00;;;;;;;0.73;0.50;;;16.90;63.80;;;;;;5065045;28;20052;-73
2023/09/01 03:25:27;;;;;;;0.75;0.60;;;16.90;67.40;;;;;;5065682;28;20189;-72
2023/09/01 03:27:54;;;;;;;1.10;0.70;;;16.90;61.20;;;;;;5062897;28;20076;-72
2023/09/01 03:30:21;;;;;;;0.40;0.40;;;16.90;63.30;;;;;;5063543;28;20095;-72
2023/09/01 03:32:47;;;;;;;0.98;0.70;;;16.90;57.60;;;;;;5064044;28;20059;-72
2023/09/01 03:35:14;;;;;;;0.75;0.50;;;16.90;59.30;;;;;;5065234;28;20056;-72
2023/09/01 03:37:41;;;;;;;0.50;0.43;;;16.90;66.40;;;;;;5064420;28;20048;-72
2023/09/01 03:40:09;;;;;;;0.70;0.60;;;16.90;65.50;;;;;;5066377;28;20044;-72
2023/09/01 03:42:36;;;;;;;0.35;0.35;;;16.80;72.50;;;;;;5063935;28;20048;-72
2023/09/01 03:45:03;;;;;;;0.60;0.40;;;16.80;79.90;;;;;;5048730;28;20071;-72
2023/09/01 03:47:30;;;;;;;0.28;0.28;;;16.80;80.40;;;;;;5065589;28;20385;-72
2023/09/01 03:49:57;;;;;;;0.57;0.50;;;16.90;79.90;;;;;;5066237;28;20199;-72
2023/09/01 03:52:24;;;;;;;0.75;0.50;;;16.80;81.00;;;;;;5046964;28;20044;-72
2023/09/01 03:54:50;;;;;;;0.60;0.50;;;16.80;90.20;;;;;;5065668;28;20048;-72
2023/09/01 03:57:17;;;;;;;0.43;0.40;;;16.80;95.70;;;;;;5062309;28;20048;-72
2023/09/01 03:59:44;;;;;;;0.50;0.38;;;16.80;96.20;;;;;;5066244;28;20060;-72
2023/09/01 04:02:11;;;;;;;0.43;0.32;;;16.90;96.00;;;;;;5047230;28;20131;-73
2023/09/01 04:04:38;;;;;;;0.45;0.43;;;16.90;96.00;;;;;;5065861;28;20056;-72
2023/09/01 04:07:06;;;;;;;0.55;0.40;;;16.90;95.30;;;;;;5065585;28;20044;-72
2023/09/01 04:09:32;;;;;;;0.35;0.35;;;16.90;95.40;;;;;;5065305;28;20051;-72
2023/09/01 04:11:59;;;;;;;0.30;0.30;;;16.90;96.90;;;;;;5064100;28;20090;-72
2023/09/01 04:14:26;;;;;;;0.60;0.28;;;16.90;97.00;;;;;;5063720;28;20134;-74
2023/09/01 04:16:53;;;;;;;0.30;0.30;;;16.90;97.80;;;;;;5065119;28;20068;-72
2023/09/01 04:19:19;;;;;;;0.60;0.52;;;16.90;98.00;;;;;;5061995;28;20094;-72
2023/09/01 04:21:46;;;;;;;0.70;0.30;;;16.90;96.30;;;;;;5063882;28;20558;-72
2023/09/01 04:24:13;;;;;;;0.20;0.20;;;17.00;96.30;;;;;;5065627;28;20428;-72
2023/09/01 04:26:39;;;;;;;0.30;0.30;;;17.00;96.00;;;;;;5062185;28;20052;-73
2023/09/01 04:29:06;;;;;;;0.28;0.25;;;17.00;96.20;;;;;;5063999;28;20098;-72
2023/09/01 04:31:33;;;;;;;0.40;0.32;;;17.00;96.50;;;;;;5062008;28;20212;-72
2023/09/01 04:34:00;;;;;;;0.20;0.20;;;17.00;97.30;;;;;;5064025;28;20852;-72
2023/09/01 04:36:27;;;;;;;0.20;0.20;;;17.00;96.90;;;;;;5064912;28;20522;-72
2023/09/01 04:39:13;;;;;;;0.38;0.38;;;17.00;96.60;;;;;;5065483;28;20043;-72
2023/09/01 04:41:40;;;;;;;0.20;0.20;;;17.00;97.60;;;;;;5061663;28;20562;-72
2023/09/01 04:44:07;;;;;;;0.10;0.10;;;17.00;97.00;;;;;;5061040;28;20139;-72
2023/09/01 04:46:38;;;;;;;0.30;0.30;;;17.00;97.30;;;;;;5063634;28;20048;-71
2023/09/01 04:49:05;;;;;;;0.10;0.10;;;17.00;97.70;;;;;;5060668;28;20049;-72
2023/09/01 04:51:32;;;;;;;0.13;0.13;;;17.00;96.50;;;;;;5061856;28;20174;-72
2023/09/01 04:53:58;;;;;;;0.32;0.20;;;17.00;97.80;;;;;;5062510;28;20493;-72
2023/09/01 04:56:25;;;;;;;0.20;0.20;;;17.00;99.90;;;;;;5055875;28;20052;-71
2023/09/01 04:58:52;;;;;;;0.17;0.15;;;17.00;99.40;;;;;;5057874;28;20045;-72
2023/09/01 05:01:18;;;;;;;0.20;0.15;;;17.00;99.90;;;;;;5060154;28;20079;-72
2023/09/01 05:03:45;;;;;;;0.20;0.20;;;17.00;99.90;;;;;;5055977;28;20604;-72
2023/09/01 05:06:12;;;;;;;0.20;0.20;;;17.00;99.70;;;;;;5063315;28;20105;-70
2023/09/01 05:08:39;;;;;;;0.35;0.30;;;17.00;99.90;;;;;;5037600;28;20052;-74
2023/09/01 05:11:06;;;;;;;0.30;0.30;;;17.00;99.90;;;;;;5067576;28;20060;-74
2023/09/01 05:13:33;;;;;;;0.35;0.35;;;17.00;99.40;;;;;;5069261;28;20048;-73
2023/09/01 05:16:00;;;;;;;0.40;0.40;;;17.10;99.90;;;;;;5055686;28;20055;-73
2023/09/01 05:18:27;;;;;;;0.40;0.40;;;17.10;99.50;;;;;;5055363;28;20853;-74
2023/09/01 05:20:53;;;;;;;0.35;0.35;;;17.10;99.30;;;;;;5066138;28;20044;-74
2023/09/01 05:23:20;;;;;;;0.55;0.47;;;17.10;99.90;;;;;;5063637;28;20048;-74
2023/09/01 05:25:53;;;;;;;0.40;0.40;;;17.10;99.90;;;;;;5054986;28;20045;-74
2023/09/01 05:28:20;;;;;;;0.20;0.20;;;17.10;99.90;;;;;;5053280;28;20067;-72
2023/09/01 05:30:47;;;;;;;0.20;0.20;;;17.10;99.30;;;;;;5044937;28;20047;-73
2023/09/01 05:33:14;;;;;;;0.47;0.38;;;17.20;99.50;;;;;;5057286;28;20128;-74
2023/09/01 05:35:41;;;;;;;0.40;0.40;;;17.10;99.10;;;;;;5063013;28;20141;-73
2023/09/01 05:38:09;;;;;;;0.20;0.20;;;17.10;99.90;;;;;;5066808;28;20113;-73
2023/09/01 05:40:37;;;;;;;0.52;0.40;;;17.20;99.90;;;;;;5073154;28;20057;-73
2023/09/01 05:43:04;;;;;;;0.22;0.22;;;17.20;99.90;;;;;;5062630;28;20048;-73
2023/09/01 05:45:31;;;;;;;0.30;0.30;;;17.20;99.90;;;;;;5063884;28;20048;-73
2023/09/01 05:47:58;;;;;;;0.55;0.40;;;17.30;99.90;;;;;;5065011;28;20044;-73
2023/09/01 05:50:25;;;;;;;0.40;0.40;;;17.30;99.90;;;;;;5062357;28;20049;-73
2023/09/01 05:52:52;;;;;;;0.20;0.20;;;17.30;99.40;;;;;;5052709;28;20441;-72
2023/09/01 05:55:18;;;;;;;0.30;0.30;;;17.40;99.50;;;;;;5064491;28;20144;-72
2023/09/01 05:57:45;;;;;;;0.25;0.22;;;17.40;98.90;;;;;;5065029;28;20129;-72
2023/09/01 06:00:12;;;;;;;0.40;0.40;;;17.40;96.80;;;;;;5066811;28;20106;-72
2023/09/01 06:02:39;;;;;;;0.13;0.13;;;17.40;98.40;;;;;;5060205;28;20057;-73
2023/09/01 06:05:06;;;;;;;0.10;0.10;;;17.40;97.10;;;;;;5063240;28;20054;-73
2023/09/01 06:07:33;;;;;;;0.25;0.25;;;17.40;97.30;;;;;;5061423;28;20095;-72
2023/09/01 06:10:00;;;;;;;1.17;0.40;;;17.50;97.90;;;;;;5071098;28;20059;-73
2023/09/01 06:12:27;;;;;;;0.30;0.30;;;17.50;96.60;;;;;;5064688;28;20403;-73
2023/09/01 06:14:53;;;;;;;0.60;0.50;;;17.50;95.40;;;;;;5065622;28;20049;-73
2023/09/01 06:17:20;;;;;;;0.13;0.13;;;17.50;96.00;;;;;;5063541;28;20049;-72
2023/09/01 06:20:04;;;;;;;0.20;0.20;;;17.60;93.80;;;;;;5047399;28;20044;-72
2023/09/01 06:22:30;;;;;;;0.35;0.30;;;17.60;89.20;;;;;;5039280;28;20395;-72
2023/09/01 06:24:57;;;;;;;0.20;0.20;;;17.60;91.40;;;;;;5040679;28;20137;-72
2023/09/01 06:27:24;;;;;;;0.38;0.30;;;17.60;93.00;;;;;;5033791;28;20124;-72
2023/09/01 06:29:51;;;;;;;0.22;0.22;;;17.60;83.70;;;;;;5048854;28;20129;-72
2023/09/01 06:32:17;;;;;;;0.65;0.20;;;17.60;81.00;;;;;;5056153;28;20072;-72
2023/09/01 06:34:44;;;;;;;0.13;0.13;;;17.60;87.40;;;;;;5046545;28;20052;-72
2023/09/01 06:37:11;;;;;;;0.20;0.20;;;17.70;88.10;;;;;;5044790;28;20048;-73
2023/09/01 06:39:38;;;;;;;0.20;0.20;;;17.70;94.50;;;;;;5058901;28;20088;-73
2023/09/01 06:42:06;;;;;;;0.10;0.10;;;17.80;92.10;;;;;;5060051;28;20067;-73
2023/09/01 06:44:33;;;;;;;0.20;0.20;;;17.80;90.90;;;;;;5064081;28;20048;-73
2023/09/01 06:47:00;;;;;;;0.20;0.20;;;17.90;90.40;;;;;;5056092;28;20084;-73
2023/09/01 06:49:27;;;;;;;0.17;0.17;;;17.90;84.10;;;;;;5066827;28;20053;-73
2023/09/01 06:51:53;;;;;;;0.20;0.20;;;18.10;81.70;;;;;;5058981;28;20103;-73
2023/09/01 06:54:21;;;;;;;0.10;0.10;;;18.10;73.80;;;;;;5056835;28;20436;-73
2023/09/01 06:56:48;;;;;;;0.10;0.10;;;18.10;57.70;;;;;;5042291;28;20119;-73
2023/09/01 06:59:15;;;;;;;0.30;0.30;;;18.20;54.30;;;;;;5057431;28;20049;-73
2023/09/01 07:01:41;;;;;;;0.30;0.30;;;18.20;50.80;;;;;;5061221;28;20466;-73
2023/09/01 07:04:08;;;;;;;0.25;0.25;;;18.30;57.60;;;;;;5056487;28;20106;-72
2023/09/01 07:06:35;;;;;;;0.40;0.40;;;18.30;56.40;;;;;;5057475;28;20052;-72
2023/09/01 07:09:03;;;;;;;0.40;0.40;;;18.40;52.80;;;;;;5053054;28;20496;-73
2023/09/01 07:11:29;;;;;;;0.20;0.20;;;18.60;41.20;;;;;;5054325;28;20744;-72
2023/09/01 07:13:56;;;;;;;0.20;0.20;;;18.70;20.40;;;;;;5066869;28;20052;-72
2023/09/01 07:16:24;;;;;;;0.20;0.20;;;18.90;1.00;;;;;;5062345;28;20048;-73
2023/09/01 07:18:50;;;;;;;0.40;0.20;;;19.10;1.00;;;;;;5080421;28;20044;-73
2023/09/01 07:21:17;;;;;;;0.30;0.30;;;19.20;1.00;;;;;;5076689;28;20137;-73
2023/09/01 07:23:44;;;;;;;0.40;0.30;;;19.30;1.00;;;;;;5060351;28;20413;-73
2023/09/01 07:26:11;;;;;;;0.30;0.30;;;19.20;1.00;;;;;;5063213;28;20049;-73
2023/09/01 07:28:38;;;;;;;0.10;0.10;;;19.20;1.00;;;;;;5065170;28;20144;-73
2023/09/01 07:31:12;;;;;;;0.10;0.10;;;19.20;1.00;;;;;;5056355;28;20432;-73
2023/09/01 07:33:43;;;;;;;0.20;0.20;;;19.20;1.00;;;;;;5060433;28;20052;-73
2023/09/01 07:36:10;;;;;;;0.20;0.20;;;19.20;1.00;;;;;;5064173;28;20376;-73
2023/09/01 07:38:37;;;;;;;0.10;0.10;;;19.20;99.90;;;;;;5065667;28;20389;-73
2023/09/01 07:41:04;;;;;;;0.10;0.10;;;19.20;1.00;;;;;;5062320;28;20049;-72
2023/09/01 07:43:31;;;;;;;0.13;0.13;;;19.30;1.00;;;;;;5062707;28;20106;-72
2023/09/01 07:45:58;;;;;;;0.20;0.20;;;19.30;1.00;;;;;;5044614;28;20611;-73
2023/09/01 07:48:25;;;;;;;0.10;0.10;;;19.40;99.90;;;;;;5035853;28;20047;-73
2023/09/01 07:50:52;;;;;;;0.10;0.10;;;19.50;99.90;;;;;;5061368;28;20053;-73
2023/09/01 07:53:19;;;;;;;0.15;0.15;;;19.60;99.90;;;;;;5080942;28;20052;-73
2023/09/01 07:55:46;;;;;;;0.10;0.10;;;19.60;99.90;;;;;;5055329;28;20109;-73
2023/09/01 07:58:13;;;;;;;0.20;0.20;;;19.70;99.90;;;;;;5070119;28;20091;-71
2023/09/01 08:00:40;;;;;;;0.10;0.10;;;19.80;99.90;;;;;;5063253;28;20139;-72
2023/09/01 08:03:10;;;;;;;0.10;0.10;;;19.90;99.90;;;;;;5044175;28;20095;-72
2023/09/01 08:05:38;;;;;;;0.10;0.10;;;20.00;99.90;;;;;;5060256;28;20859;-72
2023/09/01 08:08:06;;;;;;;0.10;0.10;;;20.10;99.90;;;;;;5057145;28;20582;-72
2023/09/01 08:10:32;;;;;;;0.10;0.10;;;20.30;99.90;;;;;;5065251;28;20254;-72
2023/09/01 08:12:59;;;;;;;0.20;0.13;;;20.20;99.90;;;;;;5061920;28;20092;-73
2023/09/01 08:15:26;;;;;;;0.20;0.20;;;20.10;99.90;;;;;;5062681;28;20102;-72
2023/09/01 08:17:53;;;;;;;0.28;0.20;;;20.00;99.90;;;;;;5061718;28;20121;-72
2023/09/01 08:20:20;;;;;;;0.40;0.20;;;20.10;99.90;;;;;;5061318;28;20048;-72
2023/09/01 08:22:47;;;;;;;0.20;0.20;;;20.10;99.90;;;;;;5062943;28;20071;-72
2023/09/01 08:25:14;;;;;;;0.13;0.13;;;20.20;99.90;;;;;;5042477;28;20075;-72
2023/09/01 08:27:40;;;;;;;0.10;0.10;;;20.30;99.90;;;;;;5058304;28;20475;-72
2023/09/01 08:30:08;;;;;;;0.20;0.20;;;20.50;99.90;;;;;;5057607;28;20098;-72
2023/09/01 08:32:34;;;;;;;0.10;0.10;;;20.50;99.90;;;;;;5047598;28;20044;-72
2023/09/01 08:35:03;;;;;;;0.20;0.20;;;20.60;99.90;;;;;;5065272;28;20048;-72
2023/09/01 08:37:30;;;;;;;0.20;0.20;;;20.60;99.90;;;;;;5065093;28;20053;-73
2023/09/01 08:39:57;;;;;;;0.10;0.10;;;20.60;99.90;;;;;;5065021;28;20040;-73
2023/09/01 08:42:25;;;;;;;0.20;0.20;;;20.60;99.90;;;;;;5063105;28;20049;-73
2023/09/01 08:44:52;;;;;;;0.30;0.20;;;20.60;99.90;;;;;;5062716;28;20456;-73
2023/09/01 08:47:22;;;;;;;0.32;0.28;;;20.70;99.90;;;;;;5076934;28;20507;-73
2023/09/01 08:49:50;;;;;;;0.30;0.22;;;20.70;99.90;;;;;;5053706;28;20332;-73
2023/09/01 08:52:18;;;;;;;0.35;0.30;;;20.80;70.90;;;;;;5046726;28;20080;-73
2023/09/01 08:54:45;;;;;;;0.40;0.30;;;20.90;1.00;;;;;;5065089;28;20114;-73
2023/09/01 08:57:12;;;;;;;0.40;0.32;;;21.00;1.00;;;;;;5062874;28;20149;-73
2023/09/01 08:59:39;;;;;;;0.30;0.30;;;21.10;1.00;;;;;;5065172;28;20157;-73
2023/09/01 09:02:07;;;;;;;0.43;0.43;;;21.20;1.00;;;;;;5042860;28;20045;-72
2023/09/01 09:04:34;;;;;;;0.30;0.30;;;21.20;99.90;;;;;;5058216;28;20045;-73
2023/09/01 09:07:15;;;;;;;0.43;0.43;;;21.30;99.90;;;;;;5063206;28;20075;-73
2023/09/01 09:09:49;;;;;;;0.30;0.30;;;21.40;99.90;;;;;;5047648;28;20052;-73
2023/09/01 09:12:16;;;;;;;0.50;0.50;;;21.50;99.90;;;;;;5062051;28;20048;-73
2023/09/01 09:14:49;;;;;;;0.73;0.50;;;21.50;99.90;;;;;;5063653;28;20045;-73
2023/09/01 09:17:26;;;;;;;0.68;0.68;;;21.50;99.90;;;;;;5048549;28;20142;-73
2023/09/01 09:19:54;;;;;;;0.52;0.45;;;21.60;99.90;;;;;;5047363;28;20041;-73
2023/09/01 09:22:21;;;;;;;0.70;0.50;;;21.70;99.90;;;;;;5025950;28;20076;-73
2023/09/01 09:24:48;;;;;;;0.70;0.50;;;21.90;99.90;;;;;;5056178;28;20198;-73
2023/09/01 09:27:16;;;;;;;0.40;0.40;;;22.00;99.90;;;;;;5058239;28;20053;-73
2023/09/01 09:29:43;;;;;;;0.47;0.47;;;22.20;99.90;;;;;;5046146;28;20045;-73
2023/09/01 09:32:20;;;;;;;0.60;0.47;;;22.50;99.90;;;;;;5045232;28;20045;-73
2023/09/01 09:35:07;;;;;;;0.30;0.30;;;22.60;99.90;;;;;;5077921;28;20052;-73
2023/09/01 09:37:34;;;;;;;0.55;0.55;;;22.80;99.90;;;;;;5064225;28;20052;-73
2023/09/01 09:40:16;;;;;;;0.30;0.30;;;22.50;1.00;;;;;;5059634;28;20044;-73
2023/09/01 09:42:44;;;;;;;0.30;0.30;;;22.50;99.90;;;;;;5061708;28;20170;-74
2023/09/01 09:45:21;;;;;;;0.30;0.30;;;22.60;99.90;;;;;;5063454;28;20045;-73
2023/09/01 09:47:49;;;;;;;0.30;0.30;;;22.70;1.00;;;;;;5063372;28;20055;-74
2023/09/01 09:50:16;;;;;;;0.25;0.25;;;22.80;99.90;;;;;;5063812;28;20131;-73
2023/09/01 09:52:52;;;;;;;0.30;0.30;;;22.90;99.90;;;;;;5033992;28;20056;-72
2023/09/01 09:55:26;;;;;;;0.28;0.28;;;23.10;99.90;;;;;;5047634;28;20045;-73
2023/09/01 09:58:04;;;;;;;0.22;0.22;;;23.40;99.90;;;;;;5045662;28;20045;-72
2023/09/01 10:00:33;;;;;;;0.20;0.20;;;23.60;73.00;;;;;;5068091;28;20480;-73
2023/09/01 10:03:03;;;;;;;0.20;0.20;;;23.90;1.00;;;;;;5066290;28;20122;-73
2023/09/01 10:05:34;;;;;;;0.30;0.30;;;23.90;99.90;;;;;;5030743;28;20053;-73
2023/09/01 10:08:02;;;;;;;0.30;0.30;;;24.00;1.00;;;;;;5062923;28;20072;-73
2023/09/01 10:10:33;;;;;;;0.30;0.30;;;24.00;1.00;;;;;;5058470;28;20423;-73
2023/09/01 10:13:02;;;;;;;0.28;0.28;;;24.00;1.00;;;;;;5081159;28;20056;-73
2023/09/01 10:15:31;;;;;;;0.32;0.22;;;24.10;1.00;;;;;;5068478;28;20051;-73
2023/09/01 10:18:02;;;;;;;0.38;0.32;;;24.10;1.00;;;;;;5066615;28;20060;-73
2023/09/01 10:20:50;;;;;;;0.20;0.20;;;24.10;1.00;;;;;;5066387;28;20159;-73
2023/09/01 10:23:16;;;;;;;0.35;0.30;;;24.00;1.00;;;;;;5050948;28;20106;-74
2023/09/01 10:26:17;;;;;;;0.47;0.40;;;23.80;1.00;;;;;;5063303;28;20044;-73
2023/09/01 10:29:01;;;;;;;0.50;0.50;;;23.30;1.00;;;;;;5064611;28;20451;-73
2023/09/01 10:31:28;;;;;;;1.67;0.80;;;22.70;92.00;;;;;;5049580;28;20502;-73
2023/09/01 10:34:12;;;;;;;1.23;0.77;;;22.30;1.00;;;;;;5066079;28;20048;-73
2023/09/01 10:36:43;;;;;;;1.08;0.95;;;22.00;99.90;;;;;;5062917;28;20087;-73
2023/09/01 10:39:16;;;;;;;1.00;0.85;;;22.00;1.00;;;;;;5078226;28;20052;-73
2023/09/01 10:42:07;;;;;;;0.77;0.70;;;22.10;99.90;;;;;;5052532;28;20048;-73
2023/09/01 10:44:43;;;;;;;0.82;0.80;;;22.30;90.70;;;;;;5063907;28;20833;-73
2023/09/01 10:47:32;;;;;;;0.80;0.68;;;22.50;95.90;;;;;;5061099;28;20052;-73
2023/09/01 10:50:02;;;;;;;0.60;0.60;;;22.60;1.00;;;;;;5064042;28;20135;-73
2023/09/01 10:52:31;;;;;;;1.17;0.93;;;22.70;98.60;;;;;;5065189;28;20159;-73
2023/09/01 10:55:03;;;;;;;0.80;0.80;;;22.80;99.90;;;;;;5049844;28;20052;-73
2023/09/01 10:57:50;;;;;;;0.80;0.65;;;22.80;51.80;;;;;;5052833;28;20044;-74
2023/09/01 11:00:32;;;;;;;1.00;0.90;;;22.80;50.60;;;;;;5065302;28;20076;-73
2023/09/01 11:03:32;;;;;;;0.90;0.65;;;22.80;60.60;;;;;;5081266;28;20407;-73
2023/09/01 11:06:00;;;;;;;1.25;0.93;;;22.80;1.00;;;;;;5046858;28;20148;-73
2023/09/01 11:08:28;;;;;;;0.75;0.70;;;22.70;1.00;;;;;;5061844;28;20056;-74
2023/09/01 11:11:00;;;;;;;0.80;0.70;;;22.90;1.00;;;;;;5057384;28;20519;-73
2023/09/01 11:13:27;;;;;;;0.63;0.60;;;23.20;2.20;;;;;;5064366;28;20488;-73
2023/09/01 11:15:54;;;;;;;0.45;0.45;;;23.50;1.00;;;;;;5063172;28;20537;-73
2023/09/01 11:18:24;;;;;;;0.82;0.45;;;23.70;1.00;;;;;;5043978;28;20130;-72
2023/09/01 11:20:55;;;;;;;0.88;0.80;;;23.70;1.00;;;;;;5066897;28;20491;-71
2023/09/01 11:23:22;;;;;;;0.55;0.55;;;23.50;1.00;;;;;;5063980;28;20048;-71
2023/09/01 11:25:56;;;;;;;0.77;0.55;;;23.30;1.00;;;;;;5061872;28;20049;-71
2023/09/01 11:28:24;;;;;;;0.80;0.60;;;23.20;1.00;;;;;;5062620;28;20400;-71
2023/09/01 11:30:52;;;;;;;0.70;0.60;;;23.00;1.00;;;;;;5048661;28;20113;-72
2023/09/01 11:33:21;;;;;;;0.43;0.30;;;22.90;1.00;;;;;;5064946;28;20158;-71
2023/09/01 11:35:48;;;;;;;0.93;0.40;;;23.00;1.00;;;;;;5025009;28;20041;-72
2023/09/01 11:38:19;;;;;;;0.50;0.40;;;23.40;1.00;;;;;;5064687;28;20059;-72
2023/09/01 11:40:47;;;;;;;0.30;0.30;;;23.50;1.00;;;;;;5068034;28;20044;-72
2023/09/01 11:43:14;;;;;;;0.30;0.30;;;23.60;1.00;;;;;;5063492;28;20083;-72
2023/09/01 11:45:48;;;;;;;0.30;0.30;;;23.60;1.00;;;;;;5066566;28;20048;-72
2023/09/01 11:48:22;;;;;;;0.38;0.38;;;23.60;1.00;;;;;;5065688;28;20173;-72
2023/09/01 11:50:57;;;;;;;0.45;0.30;;;23.60;1.00;;;;;;5065761;28;20117;-72
2023/09/01 11:53:28;;;;;;;0.50;0.40;;;23.60;1.00;;;;;;5061955;28;20059;-71
2023/09/01 11:55:58;;;;;;;0.20;0.20;;;23.60;1.00;;;;;;5077868;28;20106;-72
2023/09/01 11:58:33;;;;;;;0.20;0.20;;;24.20;1.00;;;;;;5067450;28;20044;-73
2023/09/01 12:01:12;;;;;;;0.50;0.40;;;24.50;1.00;;;;;;5061780;28;20150;-72
2023/09/01 12:03:44;;;;;;;0.20;0.20;;;24.70;1.00;;;;;;5062635;28;20068;-72
2023/09/01 12:06:25;;;;;;;0.30;0.30;;;24.90;1.00;;;;;;5042812;28;20795;-72
2023/09/01 12:08:54;;;;;;;0.40;0.40;;;25.00;1.00;;;;;;5053127;28;20366;-72
2023/09/01 12:11:21;;;;;;;0.50;0.45;;;25.50;1.00;;;;;;5056572;28;20160;-74
2023/09/01 12:13:49;;;;;;;1.17;0.65;;;25.80;1.00;;;;;;5049747;28;20128;-73
2023/09/01 12:16:21;;;;;;;0.80;0.60;;;25.90;1.00;;;;;;5070399;28;20052;-73
2023/09/01 12:18:48;;;;;;;0.57;0.50;;;25.60;1.00;;;;;;5063191;28;20071;-73
2023/09/01 12:21:15;;;;;;;0.60;0.60;;;25.60;1.00;;;;;;5062001;28;20056;-73
2023/09/01 12:23:43;;;;;;;0.93;0.77;;;25.90;1.00;;;;;;5058310;28;20530;-73
2023/09/01 12:26:11;;;;;;;0.63;0.63;;;26.30;1.00;;;;;;5042267;28;20550;-73
2023/09/01 12:28:38;;;;;;;0.70;0.70;;;26.40;99.90;;;;;;5061540;28;20139;-73
2023/09/01 12:31:06;;;;;;;0.65;0.63;;;26.90;99.90;;;;;;5044152;28;20049;-73
2023/09/01 12:33:33;;;;;;;0.82;0.40;;;27.10;99.90;;;;;;5047082;28;20400;-73
2023/09/01 12:36:00;;;;;;;0.50;0.50;;;27.00;99.90;;;;;;5063786;28;20103;-73
2023/09/01 12:38:27;;;;;;;0.60;0.57;;;26.60;1.00;;;;;;5065466;28;20056;-73
2023/09/01 12:40:54;;;;;;;0.22;0.22;;;26.50;99.90;;;;;;5046948;28;20045;-73
2023/09/01 12:43:21;;;;;;;0.43;0.35;;;26.30;99.90;;;;;;5046702;28;20070;-73
2023/09/01 12:45:48;;;;;;;0.43;0.40;;;26.30;99.90;;;;;;5031319;28;20041;-73
2023/09/01 12:48:15;;;;;;;0.45;0.43;;;26.20;99.90;;;;;;5047066;28;20461;-73
2023/09/01 12:50:48;;;;;;;0.60;0.60;;;26.30;99.90;;;;;;5044421;28;20067;-73
2023/09/01 12:53:15;;;;;;;0.70;0.50;;;26.40;99.90;;;;;;5059373;28;20056;-73
2023/09/01 12:55:42;;;;;;;0.60;0.47;;;26.20;99.90;;;;;;5062819;28;20512;-73
2023/09/01 12:58:09;;;;;;;0.65;0.50;;;25.90;99.90;;;;;;5077976;28;20074;-73
2023/09/01 13:00:36;;;;;;;0.60;0.60;;;25.90;99.90;;;;;;5060793;28;20048;-73